Time;durP1;ratioP1;P1;durP2;ratioP2;P2;SDS_P1;SDS_P2;PMS_P1;PMS_P2;Temp;Humidity;BMP_temperature;BMP_pressure;BME280_temperature;BME280_humidity;BME280_pressure;Samples;Min_cycle;Max_cycle;Signal;HPM_P1;HPM_P2
2023/08/01 00:01:32;;;;;;;3.95;3.40;;;18.10;99.90;;;;;;4991192;28;20481;-79
2023/08/01 00:03:58;;;;;;;4.22;3.50;;;18.20;99.90;;;;;;4998218;28;20391;-79
2023/08/01 00:06:24;;;;;;;4.20;3.17;;;19.40;99.90;;;;;;5001530;28;20378;-79
2023/08/01 00:08:50;;;;;;;3.60;3.15;;;19.60;99.90;;;;;;4981983;28;20400;-80
2023/08/01 00:11:16;;;;;;;3.95;3.10;;;19.60;99.90;;;;;;4973363;28;20394;-80
2023/08/01 00:13:43;;;;;;;5.33;3.73;;;18.80;99.90;;;;;;4981641;28;20505;-80
2023/08/01 00:16:09;;;;;;;5.25;3.33;;;18.50;99.90;;;;;;4992447;28;20485;-80
2023/08/01 00:18:34;;;;;;;4.07;3.40;;;18.40;99.90;;;;;;4991408;28;20414;-79
2023/08/01 00:21:00;;;;;;;4.00;3.33;;;18.20;99.90;;;;;;4992055;28;20391;-79
2023/08/01 00:23:25;;;;;;;5.93;3.77;;;18.20;99.90;;;;;;4975724;28;20502;-79
2023/08/01 00:25:51;;;;;;;6.00;4.20;;;18.10;99.90;;;;;;4971678;28;20400;-80
2023/08/01 00:28:18;;;;;;;6.90;4.00;;;18.10;99.90;;;;;;4972906;28;20446;-79
2023/08/01 00:30:43;;;;;;;5.75;3.70;;;18.10;99.90;;;;;;4991323;28;20612;-78
2023/08/01 00:33:09;;;;;;;4.18;3.33;;;18.10;99.90;;;;;;4984236;28;20435;-79
2023/08/01 00:35:34;;;;;;;6.70;3.70;;;18.10;99.90;;;;;;4973056;28;20879;-79
2023/08/01 00:38:00;;;;;;;4.80;3.60;;;18.00;99.90;;;;;;4970975;28;20745;-79
2023/08/01 00:40:33;;;;;;;3.95;3.30;;;18.10;99.90;;;;;;4979075;28;20400;-80
2023/08/01 00:42:59;;;;;;;4.38;3.80;;;18.00;99.90;;;;;;4991741;28;20418;-79
2023/08/01 00:45:26;;;;;;;4.30;3.90;;;18.00;99.90;;;;;;4992569;28;20390;-79
2023/08/01 00:47:54;;;;;;;6.28;4.18;;;18.00;99.90;;;;;;4990818;28;20426;-79
2023/08/01 00:50:20;;;;;;;4.40;4.00;;;18.00;99.90;;;;;;4987809;28;20403;-80
2023/08/01 00:52:46;;;;;;;5.45;3.80;;;17.80;99.90;;;;;;4972489;28;20900;-79
2023/08/01 00:55:13;;;;;;;5.47;3.60;;;18.00;99.90;;;;;;4971076;28;20435;-79
2023/08/01 00:57:38;;;;;;;4.40;3.60;;;17.90;99.90;;;;;;4972679;28;20392;-80
2023/08/01 01:00:05;;;;;;;6.23;4.20;;;17.90;99.90;;;;;;4977823;28;20402;-80
2023/08/01 01:02:30;;;;;;;7.13;4.25;;;17.90;99.90;;;;;;4991621;28;20715;-80
2023/08/01 01:04:56;;;;;;;5.57;4.40;;;17.90;99.90;;;;;;4994519;28;20398;-80
2023/08/01 01:07:23;;;;;;;4.78;4.00;;;17.90;99.90;;;;;;4995322;28;20383;-79
2023/08/01 01:09:49;;;;;;;6.20;4.38;;;17.90;99.90;;;;;;4991289;28;20502;-80
2023/08/01 01:12:15;;;;;;;4.70;4.30;;;17.80;99.90;;;;;;4977345;28;20414;-79
2023/08/01 01:14:41;;;;;;;5.10;4.30;;;17.90;99.90;;;;;;4979777;28;20415;-79
2023/08/01 01:17:06;;;;;;;4.85;4.35;;;17.90;99.90;;;;;;4976372;28;20407;-80
2023/08/01 01:19:32;;;;;;;5.60;3.90;;;17.90;99.90;;;;;;4976221;28;20447;-79
2023/08/01 01:21:58;;;;;;;4.93;3.50;;;17.90;99.90;;;;;;4976318;28;21029;-79
2023/08/01 01:24:26;;;;;;;3.10;2.78;;;18.70;99.90;;;;;;4994474;28;20853;-79
2023/08/01 01:26:52;;;;;;;3.95;3.20;;;19.40;99.90;;;;;;4995961;28;20766;-79
2023/08/01 01:29:19;;;;;;;2.92;2.63;;;19.80;99.90;;;;;;4995713;28;20770;-79
2023/08/01 01:31:45;;;;;;;4.80;3.10;;;20.10;99.90;;;;;;4987703;28;20454;-79
2023/08/01 01:34:11;;;;;;;5.88;2.70;;;20.30;99.90;;;;;;4976422;28;20412;-78
2023/08/01 01:36:37;;;;;;;3.70;2.78;;;20.60;99.90;;;;;;4974963;28;20427;-79
2023/08/01 01:39:02;;;;;;;5.03;2.83;;;20.70;99.90;;;;;;4975460;28;20388;-78
2023/08/01 01:41:28;;;;;;;3.53;2.70;;;20.90;99.90;;;;;;4980358;28;20433;-78
2023/08/01 01:43:53;;;;;;;5.47;2.80;;;21.00;99.90;;;;;;4995603;28;20831;-79
2023/08/01 01:46:19;;;;;;;4.10;3.20;;;21.00;99.90;;;;;;4989360;28;20495;-79
2023/08/01 01:48:44;;;;;;;3.23;2.47;;;21.10;99.90;;;;;;4975359;28;20424;-79
2023/08/01 01:51:10;;;;;;;5.63;2.97;;;21.20;99.90;;;;;;4975685;28;20416;-79
2023/08/01 01:53:35;;;;;;;3.93;2.80;;;21.20;99.90;;;;;;4981623;28;20404;-78
2023/08/01 01:56:01;;;;;;;2.60;2.40;;;21.20;99.90;;;;;;4980837;28;20494;-78
2023/08/01 01:58:27;;;;;;;3.53;2.63;;;21.20;99.90;;;;;;4998174;28;20491;-80
2023/08/01 02:00:52;;;;;;;3.10;2.80;;;21.20;99.90;;;;;;4983208;28;21048;-79
2023/08/01 02:03:18;;;;;;;5.40;3.00;;;21.30;99.90;;;;;;4979295;28;20426;-78
2023/08/01 02:05:44;;;;;;;3.30;2.77;;;21.30;99.90;;;;;;4980332;28;20480;-78
2023/08/01 02:08:10;;;;;;;4.03;2.67;;;21.40;99.90;;;;;;4979838;28;20752;-79
2023/08/01 02:10:36;;;;;;;3.53;2.50;;;21.40;99.90;;;;;;4985311;28;20403;-79
2023/08/01 02:13:01;;;;;;;2.60;2.40;;;21.30;99.90;;;;;;4992788;28;20410;-79
2023/08/01 02:15:27;;;;;;;3.53;2.63;;;21.40;99.90;;;;;;4973713;28;21091;-78
2023/08/01 02:17:52;;;;;;;4.40;2.83;;;21.40;99.90;;;;;;4975788;28;20400;-79
2023/08/01 02:20:18;;;;;;;3.43;2.70;;;21.50;99.90;;;;;;4975539;28;20456;-80
2023/08/01 02:22:43;;;;;;;4.73;2.87;;;21.50;99.90;;;;;;4976306;28;20420;-79
2023/08/01 02:25:09;;;;;;;4.25;2.20;;;21.40;99.90;;;;;;4982584;28;20897;-78
2023/08/01 02:27:34;;;;;;;3.90;2.77;;;21.50;99.90;;;;;;4993449;28;20391;-80
2023/08/01 02:30:00;;;;;;;5.18;2.60;;;21.50;99.90;;;;;;4992997;28;20394;-80
2023/08/01 02:32:25;;;;;;;4.90;3.00;;;21.40;99.90;;;;;;4994276;28;20406;-80
2023/08/01 02:34:51;;;;;;;3.83;2.72;;;21.50;99.90;;;;;;4982242;28;20494;-80
2023/08/01 02:37:16;;;;;;;3.00;2.80;;;21.40;99.90;;;;;;4995852;28;20925;-79
2023/08/01 02:39:42;;;;;;;3.53;2.60;;;21.40;99.90;;;;;;4994461;28;20429;-79
2023/08/01 02:42:08;;;;;;;4.00;2.87;;;21.40;99.90;;;;;;4994326;28;20409;-79
2023/08/01 02:44:33;;;;;;;3.70;3.00;;;21.30;99.90;;;;;;4990056;28;20404;-79
2023/08/01 02:46:59;;;;;;;3.63;2.40;;;21.30;99.90;;;;;;4975215;28;20875;-79
2023/08/01 02:49:25;;;;;;;3.70;2.60;;;21.30;99.90;;;;;;4982955;28;20403;-80
2023/08/01 02:51:50;;;;;;;5.18;2.55;;;21.30;99.90;;;;;;4993371;28;20405;-80
2023/08/01 02:54:16;;;;;;;4.37;3.10;;;21.30;99.90;;;;;;4993685;28;20429;-79
2023/08/01 02:56:41;;;;;;;3.63;2.65;;;21.30;99.90;;;;;;4994810;28;20473;-79
2023/08/01 02:59:10;;;;;;;4.43;2.80;;;21.30;99.90;;;;;;4989460;28;20713;-78
2023/08/01 03:01:37;;;;;;;3.40;2.47;;;21.40;99.90;;;;;;4974714;28;20388;-79
2023/08/01 03:04:04;;;;;;;3.58;3.03;;;21.30;99.90;;;;;;4974500;28;20391;-79
2023/08/01 03:06:30;;;;;;;3.70;2.45;;;21.20;99.90;;;;;;4974097;28;20388;-79
2023/08/01 03:08:56;;;;;;;3.30;2.40;;;21.20;99.90;;;;;;4994044;28;20382;-80
2023/08/01 03:11:21;;;;;;;5.68;2.72;;;21.20;99.90;;;;;;4995224;28;20391;-79
2023/08/01 03:13:47;;;;;;;4.40;2.50;;;21.20;99.90;;;;;;4994835;28;20410;-79
2023/08/01 03:16:12;;;;;;;3.20;2.58;;;21.20;99.90;;;;;;4993947;28;20754;-80
2023/08/01 03:18:38;;;;;;;4.77;2.60;;;21.20;99.90;;;;;;4978463;28;20450;-78
2023/08/01 03:21:04;;;;;;;3.42;2.40;;;21.00;99.90;;;;;;4990101;28;20869;-79
2023/08/01 03:23:34;;;;;;;5.23;3.00;;;21.00;99.90;;;;;;4991971;28;20832;-78
2023/08/01 03:25:59;;;;;;;4.00;2.73;;;20.80;99.90;;;;;;4991663;28;20387;-78
2023/08/01 03:28:26;;;;;;;3.27;2.90;;;20.70;99.90;;;;;;4993062;28;20395;-80
2023/08/01 03:30:53;;;;;;;4.82;3.33;;;20.40;99.90;;;;;;4978521;28;20904;-77
2023/08/01 03:33:22;;;;;;;4.30;3.00;;;20.00;99.90;;;;;;4973648;28;20425;-78
2023/08/01 03:35:47;;;;;;;4.38;2.90;;;20.00;99.90;;;;;;4985933;28;20437;-80
2023/08/01 03:38:13;;;;;;;3.77;2.63;;;19.90;99.90;;;;;;4996024;28;20733;-79
2023/08/01 03:40:39;;;;;;;4.20;2.70;;;20.00;99.90;;;;;;4995881;28;20770;-78
2023/08/01 03:43:06;;;;;;;4.85;3.22;;;20.00;99.90;;;;;;4995300;28;20401;-80
2023/08/01 03:45:31;;;;;;;5.95;3.50;;;20.10;99.90;;;;;;4988623;28;20419;-79
2023/08/01 03:47:57;;;;;;;4.20;2.72;;;20.10;99.90;;;;;;4975945;28;20416;-78
2023/08/01 03:50:22;;;;;;;3.93;2.90;;;20.10;99.90;;;;;;4975687;28;20400;-78
2023/08/01 03:52:48;;;;;;;4.93;3.00;;;20.10;99.90;;;;;;4978387;28;20771;-78
2023/08/01 03:55:13;;;;;;;5.20;3.10;;;20.10;99.90;;;;;;4995468;28;20401;-77
2023/08/01 03:57:40;;;;;;;4.65;3.08;;;20.10;99.90;;;;;;5001669;28;20486;-78
2023/08/01 04:00:13;;;;;;;3.22;2.65;;;20.10;99.90;;;;;;4994981;28;20453;-78
2023/08/01 04:02:40;;;;;;;3.10;2.80;;;20.10;99.90;;;;;;4992727;28;20474;-78
2023/08/01 04:05:06;;;;;;;4.90;2.70;;;20.10;99.90;;;;;;4990206;28;20481;-78
2023/08/01 04:07:31;;;;;;;4.00;2.90;;;20.10;99.90;;;;;;4994486;28;20435;-78
2023/08/01 04:09:57;;;;;;;4.40;2.40;;;20.10;99.90;;;;;;4992651;28;20404;-78
2023/08/01 04:12:22;;;;;;;4.40;3.00;;;20.00;99.90;;;;;;4993689;28;20764;-79
2023/08/01 04:14:48;;;;;;;4.00;3.33;;;19.80;99.90;;;;;;4993372;28;20402;-79
2023/08/01 04:17:13;;;;;;;4.40;2.60;;;19.70;99.90;;;;;;4993624;28;20485;-78
2023/08/01 04:19:39;;;;;;;3.10;2.80;;;19.50;99.90;;;;;;4984272;28;20404;-79
2023/08/01 04:22:04;;;;;;;4.90;3.08;;;19.40;99.90;;;;;;4974572;28;20395;-79
2023/08/01 04:24:30;;;;;;;4.83;3.50;;;19.10;99.90;;;;;;4974025;28;20431;-79
2023/08/01 04:26:56;;;;;;;5.33;3.20;;;19.00;99.90;;;;;;4973437;28;20396;-78
2023/08/01 04:29:21;;;;;;;4.47;2.90;;;18.80;99.90;;;;;;4978326;28;20456;-79
2023/08/01 04:31:47;;;;;;;6.32;3.50;;;18.80;99.90;;;;;;4993102;28;20517;-79
2023/08/01 04:34:12;;;;;;;7.03;3.60;;;18.70;99.90;;;;;;4976933;28;20407;-79
2023/08/01 04:36:38;;;;;;;6.15;3.35;;;18.80;99.90;;;;;;4977681;28;20398;-79
2023/08/01 04:39:03;;;;;;;5.37;3.30;;;18.80;99.90;;;;;;4979508;28;20402;-79
2023/08/01 04:41:29;;;;;;;7.45;3.70;;;18.80;99.90;;;;;;4996769;28;20386;-79
2023/08/01 04:43:54;;;;;;;5.03;3.33;;;18.70;99.90;;;;;;4997688;28;20394;-79
2023/08/01 04:46:20;;;;;;;5.03;3.73;;;18.50;99.90;;;;;;4996629;28;20866;-79
2023/08/01 04:48:45;;;;;;;5.30;3.78;;;18.40;99.90;;;;;;4999724;28;20413;-80
2023/08/01 04:51:11;;;;;;;5.50;3.87;;;18.40;99.90;;;;;;4995200;28;20418;-80
2023/08/01 04:53:36;;;;;;;6.35;3.70;;;18.30;99.90;;;;;;4996563;28;20469;-80
2023/08/01 04:56:02;;;;;;;4.80;3.67;;;18.10;99.90;;;;;;4996519;28;20437;-79
2023/08/01 04:58:28;;;;;;;4.63;3.40;;;18.00;99.90;;;;;;4992136;28;20388;-78
2023/08/01 05:00:53;;;;;;;5.85;3.83;;;17.90;99.90;;;;;;4977341;28;20395;-80
2023/08/01 05:03:19;;;;;;;5.67;3.60;;;17.80;99.90;;;;;;4984488;28;20402;-80
2023/08/01 05:05:44;;;;;;;5.60;3.80;;;17.70;99.90;;;;;;4996426;28;20390;-79
2023/08/01 05:08:10;;;;;;;5.93;3.70;;;17.60;99.90;;;;;;4997929;28;20425;-81
2023/08/01 05:10:35;;;;;;;6.80;3.90;;;17.70;99.90;;;;;;4997113;28;20391;-80
2023/08/01 05:13:01;;;;;;;5.40;3.20;;;17.50;99.90;;;;;;4990946;28;20784;-81
2023/08/01 05:15:26;;;;;;;6.47;3.57;;;17.40;99.90;;;;;;4986688;28;20445;-80
2023/08/01 05:17:53;;;;;;;4.60;3.20;;;17.40;99.90;;;;;;4993595;28;20399;-79
2023/08/01 05:20:18;;;;;;;5.18;3.30;;;17.40;99.90;;;;;;4995989;28;20487;-81
2023/08/01 05:22:44;;;;;;;5.40;3.80;;;17.30;99.90;;;;;;4996056;28;20469;-81
2023/08/01 05:25:09;;;;;;;5.27;3.90;;;17.30;99.90;;;;;;4990292;28;20400;-80
2023/08/01 05:27:35;;;;;;;7.10;4.53;;;17.20;99.90;;;;;;4980069;28;20470;-81
2023/08/01 05:30:00;;;;;;;6.13;3.77;;;17.30;99.90;;;;;;4997105;28;20391;-80
2023/08/01 05:32:26;;;;;;;6.53;4.47;;;17.20;99.90;;;;;;4996513;28;20482;-82
2023/08/01 05:34:51;;;;;;;5.18;3.85;;;17.30;99.90;;;;;;4979436;28;20396;-80
2023/08/01 05:37:17;;;;;;;5.13;4.07;;;17.20;99.90;;;;;;4980348;28;20401;-82
2023/08/01 05:39:42;;;;;;;6.05;4.15;;;17.20;99.90;;;;;;4997524;28;20409;-80
2023/08/01 05:42:09;;;;;;;6.80;4.10;;;17.20;99.90;;;;;;4997862;28;20403;-81
2023/08/01 05:44:34;;;;;;;5.50;4.10;;;17.20;99.90;;;;;;4997440;28;20391;-81
2023/08/01 05:47:00;;;;;;;4.15;3.75;;;17.20;99.90;;;;;;4998022;28;20533;-80
2023/08/01 05:49:25;;;;;;;6.30;4.00;;;17.30;99.90;;;;;;4998202;28;20394;-80
2023/08/01 05:51:51;;;;;;;5.32;3.88;;;17.20;99.90;;;;;;4987965;28;20495;-81
2023/08/01 05:54:16;;;;;;;6.25;4.13;;;17.30;99.90;;;;;;4981565;28;20396;-82
2023/08/01 05:56:42;;;;;;;5.83;3.90;;;17.30;99.90;;;;;;4980895;28;20384;-80
2023/08/01 05:59:07;;;;;;;5.85;3.75;;;17.30;99.90;;;;;;5005525;28;20402;-79
2023/08/01 06:01:34;;;;;;;5.33;3.87;;;17.30;99.90;;;;;;5009587;28;20397;-80
2023/08/01 06:03:59;;;;;;;4.65;3.80;;;17.70;99.90;;;;;;4983484;28;20492;-79
2023/08/01 06:06:25;;;;;;;4.30;3.37;;;17.80;99.90;;;;;;4985673;28;20392;-79
2023/08/01 06:08:51;;;;;;;6.40;3.90;;;17.90;99.90;;;;;;4991593;28;20396;-79
2023/08/01 06:11:17;;;;;;;5.15;3.60;;;17.90;99.90;;;;;;4988617;28;20403;-79
2023/08/01 06:13:42;;;;;;;4.90;4.00;;;17.90;99.90;;;;;;5002749;28;20922;-80
2023/08/01 06:16:08;;;;;;;5.50;3.80;;;17.90;99.90;;;;;;4999073;28;20468;-80
2023/08/01 06:18:33;;;;;;;5.78;3.58;;;17.90;99.90;;;;;;4989108;28;20400;-78
2023/08/01 06:20:59;;;;;;;4.17;3.70;;;17.60;99.90;;;;;;4982931;28;20404;-79
2023/08/01 06:23:24;;;;;;;5.30;3.90;;;17.40;99.90;;;;;;4982469;28;20410;-81
2023/08/01 06:25:50;;;;;;;5.53;4.13;;;17.20;99.90;;;;;;4992035;28;20765;-80
2023/08/01 06:28:15;;;;;;;6.27;4.70;;;17.10;99.90;;;;;;4988620;28;20419;-81
2023/08/01 06:30:41;;;;;;;5.90;4.03;;;17.00;99.90;;;;;;4999039;28;21000;-80
2023/08/01 06:33:07;;;;;;;7.07;4.37;;;17.10;99.90;;;;;;4992879;28;20439;-81
2023/08/01 06:35:32;;;;;;;5.07;4.23;;;17.10;99.90;;;;;;4979563;28;20389;-81
2023/08/01 06:37:58;;;;;;;7.05;4.00;;;17.10;99.90;;;;;;4980678;28;20392;-81
2023/08/01 06:40:23;;;;;;;5.00;3.90;;;17.20;99.90;;;;;;5000162;28;20671;-80
2023/08/01 06:42:49;;;;;;;5.55;3.88;;;17.30;99.90;;;;;;4999100;28;20402;-81
2023/08/01 06:45:14;;;;;;;5.57;3.53;;;17.40;99.90;;;;;;5001625;28;20956;-82
2023/08/01 06:47:40;;;;;;;5.30;3.80;;;17.40;99.90;;;;;;4998795;28;20394;-81
2023/08/01 06:50:06;;;;;;;5.25;3.40;;;17.40;99.90;;;;;;5000950;28;20387;-81
2023/08/01 06:52:31;;;;;;;6.03;2.97;;;17.50;99.90;;;;;;4998030;28;20406;-82
2023/08/01 06:54:57;;;;;;;5.10;3.47;;;17.60;99.90;;;;;;4981578;28;20400;-83
2023/08/01 06:57:22;;;;;;;4.30;3.03;;;17.50;99.90;;;;;;4979786;28;20408;-83
2023/08/01 06:59:48;;;;;;;3.88;3.30;;;17.60;99.90;;;;;;4979420;28;20399;-83
2023/08/01 07:02:15;;;;;;;5.03;3.10;;;17.70;99.90;;;;;;4978303;28;20387;-83
2023/08/01 07:04:40;;;;;;;3.78;3.20;;;17.70;99.90;;;;;;4980570;28;20428;-84
2023/08/01 07:07:08;;;;;;;3.80;3.13;;;17.80;99.90;;;;;;4982557;28;20402;-84
2023/08/01 07:09:34;;;;;;;5.25;3.00;;;17.90;99.90;;;;;;4999126;28;20406;-84
2023/08/01 07:11:59;;;;;;;3.85;2.90;;;18.10;99.90;;;;;;4999707;28;20417;-84
2023/08/01 07:14:25;;;;;;;4.00;2.90;;;18.20;99.90;;;;;;4992541;28;20403;-82
2023/08/01 07:16:50;;;;;;;3.53;2.43;;;18.20;99.90;;;;;;4977413;28;20400;-83
2023/08/01 07:19:16;;;;;;;2.90;2.50;;;18.20;99.90;;;;;;4977736;28;20403;-82
2023/08/01 07:21:44;;;;;;;3.97;2.90;;;18.20;99.90;;;;;;4977773;28;20483;-82
2023/08/01 07:24:09;;;;;;;3.80;2.90;;;18.20;99.90;;;;;;4979367;28;20487;-83
2023/08/01 07:26:35;;;;;;;3.08;2.55;;;18.20;99.90;;;;;;4978289;28;20470;-82
2023/08/01 07:29:00;;;;;;;3.57;2.90;;;18.10;99.90;;;;;;4978350;28;20392;-82
2023/08/01 07:31:26;;;;;;;4.43;2.97;;;17.90;99.90;;;;;;4978200;28;20955;-83
2023/08/01 07:33:51;;;;;;;3.72;2.72;;;17.60;99.90;;;;;;4979665;28;20423;-83
2023/08/01 07:36:17;;;;;;;3.60;3.30;;;17.40;99.90;;;;;;4979142;28;20404;-82
2023/08/01 07:38:42;;;;;;;3.53;3.00;;;17.30;99.90;;;;;;4980178;28;20394;-82
2023/08/01 07:41:08;;;;;;;4.85;2.85;;;17.20;99.90;;;;;;4977613;28;20392;-81
2023/08/01 07:43:33;;;;;;;3.60;2.90;;;17.10;99.90;;;;;;4999062;28;20429;-81
2023/08/01 07:46:00;;;;;;;4.88;3.47;;;17.00;99.90;;;;;;5010239;28;20399;-81
2023/08/01 07:48:25;;;;;;;5.25;3.33;;;16.90;99.90;;;;;;5006306;28;20944;-82
2023/08/01 07:50:51;;;;;;;4.03;3.17;;;16.90;99.90;;;;;;4982098;28;20475;-84
2023/08/01 07:53:17;;;;;;;4.55;3.15;;;16.80;99.90;;;;;;4977217;28;21054;-84
2023/08/01 07:55:42;;;;;;;4.53;3.03;;;16.70;99.90;;;;;;4977352;28;20475;-85
2023/08/01 07:58:08;;;;;;;6.70;3.50;;;16.70;99.90;;;;;;4976793;28;20385;-88
2023/08/01 08:00:36;;;;;;;5.43;3.70;;;16.90;99.90;;;;;;4986192;28;20401;-82
2023/08/01 08:03:02;;;;;;;5.97;3.40;;;16.60;99.90;;;;;;4988515;28;20404;-80
2023/08/01 08:05:27;;;;;;;3.60;3.00;;;16.60;99.90;;;;;;4983292;28;20737;-80
2023/08/01 08:07:53;;;;;;;5.53;3.40;;;16.60;99.90;;;;;;4974843;28;20396;-80
2023/08/01 08:10:18;;;;;;;5.50;2.92;;;16.60;99.90;;;;;;4975043;28;20411;-81
2023/08/01 08:12:44;;;;;;;4.27;3.00;;;16.60;99.90;;;;;;4977637;28;20420;-81
2023/08/01 08:15:10;;;;;;;5.13;3.27;;;16.70;99.90;;;;;;4981519;28;20506;-81
2023/08/01 08:17:36;;;;;;;3.97;3.05;;;16.80;99.90;;;;;;4981144;28;20452;-80
2023/08/01 08:20:01;;;;;;;5.10;3.00;;;16.70;99.90;;;;;;4981939;28;20411;-81
2023/08/01 08:22:27;;;;;;;3.40;3.10;;;16.80;99.90;;;;;;4979685;28;20404;-81
2023/08/01 08:24:53;;;;;;;3.40;3.10;;;16.80;99.90;;;;;;4994710;28;20402;-80
2023/08/01 08:27:18;;;;;;;2.83;2.10;;;17.00;99.90;;;;;;5001443;28;20429;-81
2023/08/01 08:29:44;;;;;;;2.90;2.40;;;17.00;99.90;;;;;;4987544;28;20399;-80
2023/08/01 08:32:09;;;;;;;2.40;2.10;;;17.10;99.90;;;;;;4983076;28;20412;-81
2023/08/01 08:34:35;;;;;;;2.80;2.10;;;17.30;99.90;;;;;;4990273;28;20427;-79
2023/08/01 08:37:00;;;;;;;3.10;2.50;;;17.30;99.90;;;;;;5010133;28;20386;-80
2023/08/01 08:39:26;;;;;;;2.63;2.13;;;17.40;99.90;;;;;;5007865;28;20394;-80
2023/08/01 08:41:53;;;;;;;2.87;2.20;;;17.50;99.90;;;;;;5006116;28;20413;-81
2023/08/01 08:44:24;;;;;;;2.70;2.00;;;17.50;99.90;;;;;;5002309;28;20410;-82
2023/08/01 08:46:54;;;;;;;2.70;2.03;;;17.70;99.90;;;;;;4985707;28;20683;-81
2023/08/01 08:49:21;;;;;;;2.70;2.00;;;17.60;99.90;;;;;;4998781;28;20421;-80
2023/08/01 08:51:48;;;;;;;2.80;2.40;;;17.60;99.90;;;;;;5005484;28;20473;-80
2023/08/01 08:54:15;;;;;;;2.25;2.00;;;17.60;99.90;;;;;;5002962;28;20387;-81
2023/08/01 08:56:41;;;;;;;2.65;2.05;;;17.50;99.90;;;;;;5004209;28;20404;-80
2023/08/01 08:59:10;;;;;;;2.07;1.87;;;17.50;99.90;;;;;;4988687;28;20432;-80
2023/08/01 09:01:36;;;;;;;2.25;1.90;;;17.60;99.90;;;;;;4982320;28;20762;-81
2023/08/01 09:04:03;;;;;;;2.40;1.90;;;17.60;99.90;;;;;;4982475;28;20388;-81
2023/08/01 09:06:31;;;;;;;2.85;1.90;;;17.70;99.90;;;;;;4994814;28;20428;-82
2023/08/01 09:09:11;;;;;;;2.20;2.00;;;17.70;99.90;;;;;;4991793;28;20416;-80
2023/08/01 09:11:44;;;;;;;3.28;2.00;;;17.80;99.90;;;;;;4984338;28;20452;-80
2023/08/01 09:14:11;;;;;;;2.67;2.33;;;17.90;99.90;;;;;;4982631;28;20412;-80
2023/08/01 09:16:37;;;;;;;2.75;2.17;;;18.00;99.90;;;;;;4982790;28;20412;-80
2023/08/01 09:19:03;;;;;;;3.28;1.88;;;18.00;99.90;;;;;;4992010;28;20410;-80
2023/08/01 09:21:35;;;;;;;2.30;1.90;;;18.10;99.90;;;;;;5006710;28;20474;-81
2023/08/01 09:24:15;;;;;;;2.88;2.40;;;18.10;99.90;;;;;;5010160;28;20390;-82
2023/08/01 09:26:41;;;;;;;4.15;2.15;;;18.30;99.90;;;;;;5007748;28;20430;-81
2023/08/01 09:29:07;;;;;;;2.72;1.80;;;18.40;99.90;;;;;;5000999;28;20401;-81
2023/08/01 09:31:38;;;;;;;2.80;1.80;;;18.50;99.90;;;;;;4987253;28;20392;-80
2023/08/01 09:34:07;;;;;;;3.03;1.98;;;18.40;99.90;;;;;;4989754;28;20481;-81
2023/08/01 09:36:34;;;;;;;2.27;2.07;;;18.60;99.90;;;;;;4990057;28;20364;-80
2023/08/01 09:39:01;;;;;;;3.70;1.90;;;18.60;99.90;;;;;;4988506;28;20393;-80
2023/08/01 09:41:29;;;;;;;2.13;1.90;;;18.60;99.90;;;;;;4989433;28;20415;-81
2023/08/01 09:43:55;;;;;;;4.32;2.47;;;18.60;99.90;;;;;;4986233;28;20398;-78
2023/08/01 09:46:20;;;;;;;2.90;1.83;;;18.70;99.90;;;;;;5010924;28;20462;-81
2023/08/01 09:48:46;;;;;;;2.40;2.10;;;18.80;99.90;;;;;;5005964;28;20445;-79
2023/08/01 09:51:13;;;;;;;2.20;2.00;;;18.80;99.90;;;;;;5005409;28;20401;-79
2023/08/01 09:53:52;;;;;;;3.40;2.50;;;18.90;99.90;;;;;;5007469;28;20402;-81
2023/08/01 09:56:22;;;;;;;3.30;1.80;;;19.00;99.90;;;;;;5006554;28;20386;-80
2023/08/01 09:58:48;;;;;;;2.60;2.00;;;19.10;99.90;;;;;;5007073;28;20385;-78
2023/08/01 10:01:15;;;;;;;2.78;1.90;;;19.20;99.90;;;;;;4966613;28;20393;-80
2023/08/01 10:03:48;;;;;;;1.80;1.70;;;19.30;99.90;;;;;;4965487;28;20402;-79
2023/08/01 10:06:22;;;;;;;2.27;1.70;;;19.40;99.90;;;;;;4967222;29;20402;-80
2023/08/01 10:08:49;;;;;;;2.65;1.80;;;19.40;99.90;;;;;;5005944;28;20421;-79
2023/08/01 10:11:17;;;;;;;2.00;1.80;;;19.40;99.90;;;;;;5007790;28;20861;-80
2023/08/01 10:13:44;;;;;;;2.28;1.70;;;19.40;99.90;;;;;;5007958;28;20413;-80
2023/08/01 10:16:10;;;;;;;3.60;2.00;;;19.30;99.90;;;;;;5005133;28;20386;-80
2023/08/01 10:18:37;;;;;;;2.40;1.80;;;19.30;99.90;;;;;;4984564;28;20424;-79
2023/08/01 10:21:15;;;;;;;2.35;1.83;;;19.30;99.90;;;;;;4989815;28;20377;-80
2023/08/01 10:23:42;;;;;;;2.17;1.97;;;19.30;99.90;;;;;;4991469;28;20410;-79
2023/08/01 10:26:10;;;;;;;2.60;1.80;;;19.30;99.90;;;;;;4999615;28;20489;-78
2023/08/01 10:28:49;;;;;;;2.28;2.00;;;19.50;99.90;;;;;;5005238;28;20401;-78
2023/08/01 10:31:17;;;;;;;2.63;1.83;;;19.60;99.90;;;;;;5005934;28;20402;-79
2023/08/01 10:33:46;;;;;;;3.00;2.20;;;19.70;99.90;;;;;;4989223;28;20408;-79
2023/08/01 10:36:17;;;;;;;2.53;1.83;;;19.70;99.90;;;;;;4995281;28;20429;-78
2023/08/01 10:38:54;;;;;;;2.25;1.90;;;19.80;99.90;;;;;;5002765;28;20398;-79
2023/08/01 10:41:33;;;;;;;2.00;1.70;;;20.00;99.90;;;;;;4999862;28;20897;-79
2023/08/01 10:44:08;;;;;;;2.10;1.52;;;20.20;99.90;;;;;;4999251;28;20394;-78
2023/08/01 10:46:53;;;;;;;2.65;1.67;;;20.20;99.90;;;;;;4980633;28;20435;-80
2023/08/01 10:49:21;;;;;;;2.20;1.60;;;20.30;99.90;;;;;;4980821;28;20392;-78
2023/08/01 10:51:47;;;;;;;2.07;1.60;;;20.20;99.90;;;;;;4982090;28;20430;-80
2023/08/01 10:54:20;;;;;;;2.13;1.60;;;20.30;99.90;;;;;;4978730;28;20430;-79
2023/08/01 10:56:47;;;;;;;1.75;1.45;;;20.20;99.90;;;;;;4961017;28;20390;-80
2023/08/01 10:59:14;;;;;;;2.35;1.80;;;20.20;99.90;;;;;;4965759;29;20464;-78
2023/08/01 11:01:51;;;;;;;2.30;1.70;;;20.20;99.90;;;;;;4961963;29;20382;-78
2023/08/01 11:04:21;;;;;;;1.60;1.50;;;20.30;99.90;;;;;;4965020;28;20484;-78
2023/08/01 11:06:52;;;;;;;2.40;1.23;;;20.20;99.90;;;;;;4976943;28;20399;-79
2023/08/01 11:09:23;;;;;;;2.03;1.40;;;20.40;99.90;;;;;;4979167;28;20388;-80
2023/08/01 11:11:51;;;;;;;1.75;1.38;;;20.60;99.90;;;;;;4984848;28;20492;-79
2023/08/01 11:14:20;;;;;;;1.92;1.27;;;20.70;99.90;;;;;;4985567;28;20837;-78
2023/08/01 11:16:47;;;;;;;1.95;1.40;;;20.50;99.90;;;;;;4959405;28;20405;-80
2023/08/01 11:19:21;;;;;;;2.20;1.40;;;20.70;99.90;;;;;;4958832;29;20398;-80
2023/08/01 11:21:46;;;;;;;1.40;1.10;;;21.10;99.90;;;;;;5002363;28;20405;-79
2023/08/01 11:24:12;;;;;;;1.33;1.23;;;21.40;99.90;;;;;;5008063;28;20391;-79
2023/08/01 11:26:42;;;;;;;2.20;1.48;;;21.30;99.90;;;;;;5005347;28;20395;-81
2023/08/01 11:29:08;;;;;;;1.50;1.40;;;21.30;99.90;;;;;;4996193;28;20395;-81
2023/08/01 11:31:34;;;;;;;1.80;1.35;;;21.30;99.90;;;;;;4984149;28;20380;-79
2023/08/01 11:34:00;;;;;;;2.33;1.50;;;21.10;99.90;;;;;;4986652;28;20431;-78
2023/08/01 11:36:27;;;;;;;2.07;1.20;;;21.20;99.90;;;;;;4985430;28;20495;-77
2023/08/01 11:38:54;;;;;;;1.60;1.27;;;21.10;99.90;;;;;;4998412;28;20932;-80
2023/08/01 11:41:19;;;;;;;2.47;1.40;;;21.00;99.90;;;;;;4994763;28;20383;-79
2023/08/01 11:43:45;;;;;;;1.40;1.30;;;21.00;99.90;;;;;;4995892;28;20398;-81
2023/08/01 11:46:12;;;;;;;1.67;1.27;;;21.60;99.90;;;;;;4997112;28;20395;-81
2023/08/01 11:48:38;;;;;;;2.20;1.35;;;21.50;99.90;;;;;;4983117;28;20404;-79
2023/08/01 11:51:04;;;;;;;2.30;1.50;;;22.00;99.90;;;;;;4977186;28;20393;-80
2023/08/01 11:53:32;;;;;;;1.42;1.30;;;22.00;99.90;;;;;;4974866;28;20419;-79
2023/08/01 11:55:58;;;;;;;1.60;1.30;;;22.30;99.90;;;;;;4979306;28;20396;-78
2023/08/01 11:58:33;;;;;;;1.10;1.00;;;22.50;99.90;;;;;;4999363;28;20885;-79
2023/08/01 12:01:03;;;;;;;1.13;0.90;;;22.90;99.90;;;;;;4996197;28;20477;-80
2023/08/01 12:03:29;;;;;;;1.10;0.90;;;22.70;99.90;;;;;;4997323;28;20386;-79
2023/08/01 12:06:08;;;;;;;1.20;0.60;;;22.80;99.90;;;;;;4994943;28;20382;-81
2023/08/01 12:08:34;;;;;;;0.80;0.70;;;23.00;99.90;;;;;;4976347;28;20404;-79
2023/08/01 12:11:00;;;;;;;1.15;0.50;;;22.50;99.90;;;;;;4976634;28;20412;-79
2023/08/01 12:13:26;;;;;;;1.50;0.70;;;22.50;99.90;;;;;;4984764;28;20829;-79
2023/08/01 12:15:57;;;;;;;0.70;0.60;;;22.60;99.90;;;;;;4978270;28;20396;-79
2023/08/01 12:18:28;;;;;;;0.80;0.70;;;22.40;99.90;;;;;;4976043;28;20492;-80
2023/08/01 12:20:54;;;;;;;0.90;0.63;;;22.20;99.90;;;;;;4975136;28;20800;-79
2023/08/01 12:23:20;;;;;;;0.88;0.70;;;22.10;99.90;;;;;;4994981;28;20469;-80
2023/08/01 12:25:49;;;;;;;1.13;0.65;;;22.00;99.90;;;;;;4995381;28;21149;-80
2023/08/01 12:28:15;;;;;;;2.00;0.60;;;22.90;99.90;;;;;;4977437;28;20404;-80
2023/08/01 12:30:41;;;;;;;1.50;0.57;;;22.50;99.90;;;;;;4972960;28;20491;-79
2023/08/01 12:33:07;;;;;;;0.73;0.52;;;22.90;99.90;;;;;;4972864;28;20488;-79
2023/08/01 12:35:33;;;;;;;1.48;0.60;;;22.70;99.90;;;;;;4976050;28;20475;-83
2023/08/01 12:37:59;;;;;;;0.80;0.50;;;22.90;99.90;;;;;;4989829;28;20426;-82
2023/08/01 12:40:24;;;;;;;1.20;0.50;;;23.30;99.90;;;;;;4982326;28;21023;-81
2023/08/01 12:42:50;;;;;;;0.90;0.73;;;23.40;99.90;;;;;;4974068;28;20455;-80
2023/08/01 12:45:16;;;;;;;0.97;0.60;;;23.60;99.90;;;;;;4978224;28;20424;-81